Time;durP1;ratioP1;P1;durP2;ratioP2;P2;SDS_P1;SDS_P2;PMS_P1;PMS_P2;Temp;Humidity;BMP_temperature;BMP_pressure;BME280_temperature;BME280_humidity;BME280_pressure;Samples;Min_cycle;Max_cycle;Signal;HPM_P1;HPM_P2
2023/04/07 00:02:18;;;;;;;3.23;1.77;;;3.00;70.00;;;;;;5048978;28;20184;-76
2023/04/07 00:04:44;;;;;;;1.43;1.30;;;3.00;69.80;;;;;;5053363;28;20180;-76
2023/04/07 00:07:09;;;;;;;3.07;1.63;;;3.00;69.80;;;;;;5052257;28;20179;-76
2023/04/07 00:09:35;;;;;;;2.70;1.73;;;3.00;69.80;;;;;;5050412;28;20254;-76
2023/04/07 00:12:01;;;;;;;4.00;1.67;;;3.00;69.90;;;;;;5051592;28;20271;-76
2023/04/07 00:14:27;;;;;;;1.60;1.57;;;3.00;69.90;;;;;;5050355;28;20606;-76
2023/04/07 00:16:53;;;;;;;1.43;1.33;;;2.90;70.10;;;;;;5046697;28;20194;-76
2023/04/07 00:19:19;;;;;;;2.47;1.23;;;2.90;70.10;;;;;;5047890;28;20581;-76
2023/04/07 00:21:45;;;;;;;1.43;1.43;;;3.00;69.90;;;;;;5049927;28;20599;-76
2023/04/07 00:24:11;;;;;;;2.63;1.47;;;3.00;69.80;;;;;;5055593;28;20261;-76
2023/04/07 00:26:37;;;;;;;1.13;1.13;;;3.10;69.80;;;;;;5052889;28;20176;-76
2023/04/07 00:29:02;;;;;;;2.07;1.80;;;3.10;69.60;;;;;;5049614;28;20200;-76
2023/04/07 00:31:28;;;;;;;2.33;1.33;;;3.10;69.80;;;;;;5051468;28;20183;-75
2023/04/07 00:33:54;;;;;;;2.37;1.17;;;3.10;69.80;;;;;;5048632;28;20260;-76
2023/04/07 00:36:20;;;;;;;1.53;1.53;;;3.00;69.90;;;;;;5057713;28;20187;-76
2023/04/07 00:38:46;;;;;;;2.10;1.20;;;3.00;69.70;;;;;;5050432;28;20175;-77
2023/04/07 00:41:12;;;;;;;2.47;1.37;;;3.00;69.80;;;;;;5055160;28;20322;-77
2023/04/07 00:43:38;;;;;;;2.23;1.47;;;3.00;69.80;;;;;;5054266;28;20236;-76
2023/04/07 00:46:04;;;;;;;3.97;1.83;;;3.00;69.90;;;;;;5059929;28;20262;-76
2023/04/07 00:48:30;;;;;;;4.10;2.03;;;2.90;70.20;;;;;;5050639;28;20198;-76
2023/04/07 00:50:56;;;;;;;4.67;1.37;;;3.00;70.10;;;;;;5055702;28;22259;-76
2023/04/07 00:53:22;;;;;;;1.57;1.50;;;3.00;70.20;;;;;;5057013;28;20171;-76
2023/04/07 00:55:48;;;;;;;2.10;1.63;;;3.00;70.00;;;;;;5052013;28;20180;-76
2023/04/07 00:58:14;;;;;;;2.13;1.60;;;3.00;69.90;;;;;;5059895;28;20176;-76
2023/04/07 01:00:50;;;;;;;1.30;1.20;;;2.90;70.00;;;;;;5053831;28;20187;-77
2023/04/07 01:03:23;;;;;;;1.40;1.30;;;2.90;69.90;;;;;;5055380;28;20648;-77
2023/04/07 01:05:56;;;;;;;1.70;1.63;;;2.90;70.00;;;;;;5061403;28;20171;-77
2023/04/07 01:08:22;;;;;;;1.43;1.33;;;2.90;69.90;;;;;;5058421;28;20731;-76
2023/04/07 01:11:23;;;;;;;1.73;1.57;;;3.00;69.70;;;;;;5058876;28;20175;-76
2023/04/07 01:13:50;;;;;;;1.53;1.50;;;3.00;69.60;;;;;;5054520;28;20211;-76
2023/04/07 01:16:22;;;;;;;1.13;1.10;;;3.00;69.70;;;;;;5053662;28;20179;-76
2023/04/07 01:18:51;;;;;;;1.30;1.20;;;3.00;69.60;;;;;;5051983;28;20575;-77
2023/04/07 01:21:18;;;;;;;2.13;1.93;;;2.90;70.10;;;;;;5055196;28;20171;-76
2023/04/07 01:24:18;;;;;;;5.60;1.50;;;3.00;69.70;;;;;;5055462;28;20559;-77
2023/04/07 01:26:46;;;;;;;0.60;0.60;;;3.00;69.80;;;;;;5053795;28;20583;-76
2023/04/07 01:29:33;;;;;;;1.57;1.47;;;3.00;69.60;;;;;;5055090;28;20207;-78
2023/04/07 01:32:00;;;;;;;1.50;1.40;;;3.10;69.50;;;;;;5054588;28;20193;-77
2023/04/07 01:34:30;;;;;;;1.83;1.63;;;3.00;69.60;;;;;;5060789;28;20203;-77
2023/04/07 01:36:58;;;;;;;4.10;1.00;;;3.00;69.90;;;;;;5058329;28;20184;-77
2023/04/07 01:39:26;;;;;;;1.37;1.23;;;3.00;69.70;;;;;;5057411;28;20190;-77
2023/04/07 01:41:54;;;;;;;1.20;1.20;;;3.00;69.70;;;;;;5059615;28;20180;-77
2023/04/07 01:44:21;;;;;;;1.60;1.50;;;3.10;69.40;;;;;;5058297;28;20187;-77
2023/04/07 01:46:49;;;;;;;1.40;1.30;;;3.10;69.10;;;;;;5056370;28;20595;-76
2023/04/07 01:49:17;;;;;;;1.47;1.37;;;3.10;68.90;;;;;;5059481;28;20586;-77
2023/04/07 01:51:43;;;;;;;1.53;1.53;;;3.20;68.60;;;;;;5054479;28;20194;-77
2023/04/07 01:54:09;;;;;;;1.37;1.13;;;3.20;68.60;;;;;;5058350;28;20183;-77
2023/04/07 01:56:35;;;;;;;1.57;1.53;;;3.30;68.40;;;;;;5057372;28;20698;-77
2023/04/07 01:59:00;;;;;;;2.70;0.93;;;3.20;68.40;;;;;;5056606;28;20182;-77
2023/04/07 02:01:27;;;;;;;3.80;1.40;;;3.30;68.30;;;;;;5057137;28;20254;-77
2023/04/07 02:04:09;;;;;;;1.90;1.50;;;3.20;68.00;;;;;;5062390;28;20188;-77
2023/04/07 02:06:42;;;;;;;1.63;1.53;;;3.10;68.10;;;;;;5054834;28;20199;-78
2023/04/07 02:09:11;;;;;;;1.50;1.40;;;3.20;67.90;;;;;;5059703;28;20263;-78
2023/04/07 02:11:39;;;;;;;1.80;1.70;;;3.20;68.00;;;;;;5059512;28;20209;-77
2023/04/07 02:14:07;;;;;;;1.57;1.47;;;3.20;68.20;;;;;;5065028;28;20331;-77
2023/04/07 02:16:34;;;;;;;1.90;1.83;;;3.30;70.80;;;;;;5061251;28;20298;-77
2023/04/07 02:19:01;;;;;;;2.33;2.23;;;3.20;71.70;;;;;;5057894;28;20200;-77
2023/04/07 02:21:29;;;;;;;2.30;2.13;;;3.30;73.10;;;;;;5058915;28;20547;-76
2023/04/07 02:23:55;;;;;;;2.67;2.47;;;3.10;72.60;;;;;;5053437;28;20179;-76
2023/04/07 02:26:20;;;;;;;2.20;1.87;;;3.00;72.20;;;;;;5050885;28;20188;-76
2023/04/07 02:28:46;;;;;;;3.17;2.87;;;3.00;73.10;;;;;;5056777;28;20210;-76
2023/04/07 02:31:12;;;;;;;2.83;2.53;;;3.10;75.20;;;;;;5050763;28;20195;-76
2023/04/07 02:33:38;;;;;;;3.10;2.83;;;3.10;75.20;;;;;;5054265;28;20171;-77
2023/04/07 02:36:04;;;;;;;2.17;2.10;;;3.10;75.60;;;;;;5053960;28;20187;-76
2023/04/07 02:38:31;;;;;;;2.67;2.47;;;2.80;73.00;;;;;;5056253;28;20184;-76
2023/04/07 02:40:58;;;;;;;1.27;1.17;;;2.70;72.70;;;;;;5055214;28;20641;-76
2023/04/07 02:43:24;;;;;;;1.60;1.50;;;2.70;72.40;;;;;;5056960;28;20192;-76
2023/04/07 02:45:50;;;;;;;2.80;1.17;;;2.80;70.40;;;;;;5050891;28;20191;-77
2023/04/07 02:48:15;;;;;;;1.50;1.23;;;2.90;69.20;;;;;;5053533;28;20198;-76
2023/04/07 02:50:41;;;;;;;0.93;0.93;;;3.00;69.20;;;;;;5054105;28;20320;-76
2023/04/07 02:53:07;;;;;;;1.07;1.07;;;3.00;68.50;;;;;;5057812;28;20245;-76
2023/04/07 02:55:32;;;;;;;1.30;1.30;;;3.10;68.50;;;;;;5053131;28;20561;-76
2023/04/07 02:57:58;;;;;;;1.83;1.73;;;3.20;68.60;;;;;;5054712;28;20183;-76
2023/04/07 03:00:24;;;;;;;3.83;2.03;;;3.40;70.60;;;;;;5050205;28;20248;-76
2023/04/07 03:02:50;;;;;;;2.00;1.93;;;3.50;72.40;;;;;;5055831;28;20184;-77
2023/04/07 03:05:16;;;;;;;2.50;2.13;;;3.50;73.70;;;;;;5055207;28;20290;-76
2023/04/07 03:07:41;;;;;;;2.70;2.33;;;3.50;74.30;;;;;;5054391;28;20203;-77
2023/04/07 03:10:07;;;;;;;2.67;2.47;;;3.30;75.20;;;;;;5056590;28;20941;-77
2023/04/07 03:12:33;;;;;;;2.63;2.43;;;3.20;75.50;;;;;;5058746;28;20242;-77
2023/04/07 03:14:59;;;;;;;2.40;2.30;;;3.30;75.00;;;;;;5061593;28;20237;-77
2023/04/07 03:17:25;;;;;;;3.47;2.20;;;3.40;75.40;;;;;;5056754;28;20261;-77
2023/04/07 03:19:50;;;;;;;1.53;1.53;;;3.10;72.70;;;;;;5063570;28;20254;-77
2023/04/07 03:22:16;;;;;;;1.70;1.60;;;3.00;71.00;;;;;;5061719;28;20178;-76
2023/04/07 03:24:42;;;;;;;1.40;1.40;;;3.10;70.20;;;;;;5060884;28;20175;-77
2023/04/07 03:27:07;;;;;;;1.47;1.43;;;3.20;68.60;;;;;;5061060;28;20179;-77
2023/04/07 03:29:33;;;;;;;1.13;1.10;;;3.30;68.10;;;;;;5060728;28;20203;-77
2023/04/07 03:31:59;;;;;;;1.57;1.17;;;3.40;67.90;;;;;;5056960;28;20218;-78
2023/04/07 03:34:25;;;;;;;2.47;1.67;;;3.40;67.70;;;;;;5056423;28;20182;-78
2023/04/07 03:36:50;;;;;;;2.03;1.17;;;3.40;67.50;;;;;;5055775;28;20178;-76
2023/04/07 03:39:16;;;;;;;0.57;0.57;;;3.30;67.50;;;;;;5061721;28;20661;-77
2023/04/07 03:41:42;;;;;;;1.00;1.00;;;3.30;67.40;;;;;;5056838;28;20743;-77
2023/04/07 03:44:07;;;;;;;1.33;0.90;;;3.30;67.40;;;;;;5059404;28;20203;-78
2023/04/07 03:46:33;;;;;;;0.87;0.87;;;3.30;67.30;;;;;;5057987;28;20180;-77
2023/04/07 03:49:00;;;;;;;1.50;1.40;;;3.30;67.20;;;;;;5061500;28;20226;-77
2023/04/07 03:51:26;;;;;;;2.00;1.37;;;3.40;67.40;;;;;;5052365;28;20578;-78
2023/04/07 03:53:52;;;;;;;1.20;1.10;;;3.40;67.30;;;;;;5053932;28;20286;-76
2023/04/07 03:56:18;;;;;;;1.17;1.17;;;3.30;67.30;;;;;;5048813;28;20713;-77
2023/04/07 03:58:45;;;;;;;1.47;1.23;;;3.20;67.60;;;;;;5050391;28;20270;-76
2023/04/07 04:01:11;;;;;;;0.97;0.97;;;3.30;67.70;;;;;;5054829;28;20175;-76
2023/04/07 04:03:36;;;;;;;2.70;1.10;;;3.30;67.50;;;;;;5052156;28;20240;-77
2023/04/07 04:06:02;;;;;;;1.83;1.67;;;3.30;67.60;;;;;;5054564;28;20729;-77
2023/04/07 04:08:28;;;;;;;1.27;1.27;;;3.40;67.70;;;;;;5048623;28;20705;-77
2023/04/07 04:10:54;;;;;;;1.27;1.27;;;3.40;67.70;;;;;;5058917;28;20198;-79
2023/04/07 04:13:20;;;;;;;1.40;1.30;;;3.40;67.50;;;;;;5055082;28;20179;-77
2023/04/07 04:15:46;;;;;;;1.37;1.33;;;3.30;67.50;;;;;;5049235;28;20190;-78
2023/04/07 04:18:11;;;;;;;1.20;1.20;;;3.30;67.80;;;;;;5053946;28;20175;-81
2023/04/07 04:20:37;;;;;;;1.03;1.03;;;3.30;67.90;;;;;;5053468;28;20186;-79
2023/04/07 04:23:03;;;;;;;1.67;1.57;;;3.30;68.00;;;;;;5051338;28;20167;-81
2023/04/07 04:25:28;;;;;;;1.33;1.30;;;3.30;67.90;;;;;;5056551;28;20710;-79
2023/04/07 04:27:54;;;;;;;4.30;1.47;;;3.40;67.70;;;;;;5050698;28;21014;-79
2023/04/07 04:30:20;;;;;;;1.40;1.03;;;3.40;67.60;;;;;;5052413;28;20209;-81
2023/04/07 04:32:46;;;;;;;1.57;1.47;;;3.50;67.10;;;;;;5052014;28;20274;-80
2023/04/07 04:35:12;;;;;;;1.60;1.50;;;3.60;66.90;;;;;;5072206;28;20699;-79
2023/04/07 04:37:38;;;;;;;2.10;1.97;;;3.80;67.70;;;;;;5054266;28;20191;-77
2023/04/07 04:40:07;;;;;;;4.63;3.40;;;3.90;69.80;;;;;;5046260;28;20183;-79
2023/04/07 04:42:33;;;;;;;7.00;3.87;;;4.00;71.90;;;;;;5057414;28;20183;-75
2023/04/07 04:44:58;;;;;;;8.93;5.43;;;4.10;72.90;;;;;;5052570;28;20273;-75
2023/04/07 04:47:24;;;;;;;7.30;4.33;;;4.00;73.90;;;;;;5052954;28;20283;-80
2023/04/07 04:49:50;;;;;;;3.40;3.10;;;3.90;74.50;;;;;;5056000;28;20219;-78
2023/04/07 04:52:16;;;;;;;8.47;5.27;;;3.90;74.70;;;;;;5052098;28;20172;-79
2023/04/07 04:54:41;;;;;;;4.70;4.30;;;3.90;74.80;;;;;;5056606;28;20278;-78
2023/04/07 04:57:07;;;;;;;4.00;3.67;;;3.90;74.60;;;;;;5051711;28;20916;-77
2023/04/07 04:59:33;;;;;;;4.77;3.77;;;4.00;74.50;;;;;;5045960;28;20725;-77
2023/04/07 05:01:59;;;;;;;3.50;3.17;;;4.00;74.40;;;;;;5049626;28;20183;-77
2023/04/07 05:04:25;;;;;;;4.10;3.80;;;4.00;74.60;;;;;;5051949;28;20187;-76
2023/04/07 05:06:50;;;;;;;3.87;3.53;;;4.10;74.50;;;;;;5057316;28;20175;-75
2023/04/07 05:09:16;;;;;;;6.33;3.87;;;4.10;74.40;;;;;;5050666;28;20218;-75
2023/04/07 05:11:42;;;;;;;3.27;3.00;;;4.20;74.40;;;;;;5053832;28;20176;-75
2023/04/07 05:14:08;;;;;;;3.97;3.37;;;4.20;74.30;;;;;;5053012;28;20207;-75
2023/04/07 05:16:34;;;;;;;6.53;3.60;;;4.20;74.40;;;;;;5055820;28;20208;-75
2023/04/07 05:19:00;;;;;;;4.07;3.67;;;4.20;74.10;;;;;;5054602;28;20212;-75
2023/04/07 05:21:26;;;;;;;4.03;3.67;;;4.30;73.90;;;;;;5054545;28;20212;-75
2023/04/07 05:23:52;;;;;;;3.47;3.17;;;4.40;73.90;;;;;;5052572;28;20180;-76
2023/04/07 05:26:18;;;;;;;4.70;3.57;;;4.40;73.50;;;;;;5049234;28;20186;-76
2023/04/07 05:28:43;;;;;;;4.63;3.47;;;4.40;73.60;;;;;;5056835;28;20195;-75
2023/04/07 05:31:09;;;;;;;4.03;3.07;;;4.50;73.50;;;;;;5061060;28;20247;-75
2023/04/07 05:33:35;;;;;;;3.63;2.90;;;4.50;73.40;;;;;;5058030;28;20222;-76
2023/04/07 05:36:01;;;;;;;3.77;3.40;;;4.60;73.40;;;;;;5057950;28;20186;-76
2023/04/07 05:38:27;;;;;;;3.57;3.27;;;4.70;73.40;;;;;;5053000;28;20195;-75
2023/04/07 05:40:52;;;;;;;4.87;3.70;;;4.70;73.10;;;;;;5057494;28;20578;-76
2023/04/07 05:43:18;;;;;;;3.77;3.47;;;4.80;72.90;;;;;;5060773;28;20190;-76
2023/04/07 05:45:44;;;;;;;5.97;3.87;;;5.00;72.60;;;;;;5060594;28;20179;-76
2023/04/07 05:48:10;;;;;;;4.50;3.63;;;5.10;72.30;;;;;;5053546;28;20183;-75
2023/04/07 05:50:36;;;;;;;8.53;3.70;;;5.20;71.70;;;;;;5055778;28;20242;-75
2023/04/07 05:53:01;;;;;;;5.13;3.50;;;5.20;71.30;;;;;;5058349;28;20259;-76
2023/04/07 05:55:27;;;;;;;4.20;3.80;;;5.40;71.20;;;;;;5056940;28;20191;-75
2023/04/07 05:57:53;;;;;;;3.60;3.17;;;5.20;70.50;;;;;;5054423;28;20171;-76
2023/04/07 06:00:19;;;;;;;5.93;3.97;;;5.30;70.80;;;;;;5055069;28;20179;-76
2023/04/07 06:02:45;;;;;;;4.27;3.83;;;5.40;70.80;;;;;;5053861;28;20184;-75
2023/04/07 06:05:11;;;;;;;6.93;3.87;;;5.40;71.00;;;;;;5054714;28;20237;-76
2023/04/07 06:07:36;;;;;;;5.10;2.90;;;5.50;70.70;;;;;;5055068;28;20213;-76
2023/04/07 06:10:02;;;;;;;4.40;4.00;;;5.60;70.40;;;;;;5053901;28;20209;-75
2023/04/07 06:12:28;;;;;;;5.63;4.10;;;5.70;70.10;;;;;;5058387;28;20191;-75
2023/04/07 06:14:54;;;;;;;5.90;3.47;;;5.80;70.00;;;;;;5059265;28;20177;-75
2023/04/07 06:17:21;;;;;;;4.30;3.90;;;5.80;69.90;;;;;;5055461;28;20189;-75
2023/04/07 06:19:47;;;;;;;5.90;3.50;;;5.90;70.00;;;;;;5054708;28;20238;-75
2023/04/07 06:22:13;;;;;;;4.90;3.67;;;6.00;69.80;;;;;;5056784;28;20198;-76
2023/04/07 06:24:38;;;;;;;4.50;3.87;;;6.10;69.30;;;;;;5057235;28;20183;-75
2023/04/07 06:27:05;;;;;;;4.30;3.80;;;6.20;68.40;;;;;;5051171;28;20229;-75
2023/04/07 06:29:32;;;;;;;5.37;3.80;;;6.20;68.50;;;;;;5061018;28;20223;-74
2023/04/07 06:31:58;;;;;;;6.73;4.17;;;6.30;68.50;;;;;;5060455;28;20171;-75
2023/04/07 06:34:24;;;;;;;6.00;3.73;;;6.30;68.50;;;;;;5051623;28;20180;-74
2023/04/07 06:36:50;;;;;;;4.83;4.20;;;6.40;68.40;;;;;;5055655;28;20238;-77
2023/04/07 06:39:15;;;;;;;10.67;4.83;;;6.40;68.00;;;;;;5056187;28;20223;-75
2023/04/07 06:41:42;;;;;;;6.53;4.10;;;6.40;68.10;;;;;;5058630;28;20167;-76
2023/04/07 06:44:10;;;;;;;4.57;4.17;;;6.40;68.20;;;;;;5054844;28;20187;-75
2023/04/07 06:46:36;;;;;;;3.60;3.37;;;6.50;67.80;;;;;;5052675;28;20184;-75
2023/04/07 06:49:02;;;;;;;6.97;3.70;;;6.60;68.00;;;;;;5056407;28;20234;-75
2023/04/07 06:51:28;;;;;;;4.67;4.13;;;6.70;67.90;;;;;;5055789;28;20194;-75
2023/04/07 06:53:54;;;;;;;4.10;3.77;;;6.90;67.80;;;;;;5056755;28;20179;-75
2023/04/07 06:56:21;;;;;;;4.93;4.40;;;7.00;67.40;;;;;;5053709;28;20312;-74
2023/04/07 06:58:46;;;;;;;7.47;5.00;;;7.20;66.90;;;;;;5051974;28;20184;-76
2023/04/07 07:01:12;;;;;;;3.53;3.17;;;7.20;65.70;;;;;;5049348;28;20222;-76
2023/04/07 07:03:38;;;;;;;2.03;1.93;;;7.00;62.50;;;;;;5058155;28;20183;-76
2023/04/07 07:06:04;;;;;;;2.67;2.57;;;7.00;60.70;;;;;;5051570;28;20572;-75
2023/04/07 07:08:30;;;;;;;3.70;2.10;;;6.90;60.00;;;;;;5055783;28;20183;-75
2023/04/07 07:10:55;;;;;;;2.70;1.83;;;6.50;60.10;;;;;;5052225;28;20187;-76
2023/04/07 07:13:23;;;;;;;1.47;1.47;;;6.40;60.40;;;;;;5053565;28;20183;-76
2023/04/07 07:15:49;;;;;;;1.80;1.80;;;6.40;60.50;;;;;;5055419;28;20303;-76
2023/04/07 07:18:16;;;;;;;1.87;1.77;;;6.30;60.40;;;;;;5058362;28;20601;-76
2023/04/07 07:20:41;;;;;;;2.17;2.07;;;6.20;60.40;;;;;;5054852;28;20191;-77
2023/04/07 07:23:07;;;;;;;2.20;2.10;;;6.20;60.80;;;;;;5054313;28;20176;-75
2023/04/07 07:25:33;;;;;;;3.33;2.60;;;6.40;61.20;;;;;;5057047;28;20179;-75
2023/04/07 07:27:58;;;;;;;1.97;1.87;;;6.50;60.80;;;;;;5052913;28;20180;-76
2023/04/07 07:30:25;;;;;;;2.67;1.57;;;6.70;60.40;;;;;;5051715;28;20227;-76
2023/04/07 07:32:52;;;;;;;2.13;2.03;;;6.70;59.80;;;;;;5052192;28;20183;-76
2023/04/07 07:35:18;;;;;;;2.27;1.93;;;6.70;60.30;;;;;;5058784;28;20312;-76
2023/04/07 07:37:44;;;;;;;3.00;1.77;;;6.80;60.40;;;;;;5060963;28;20754;-75
2023/04/07 07:40:10;;;;;;;2.43;2.23;;;7.00;60.10;;;;;;5052423;28;20296;-74
2023/04/07 07:42:36;;;;;;;4.93;2.03;;;7.20;59.70;;;;;;5059390;28;20186;-77
2023/04/07 07:45:02;;;;;;;2.40;2.20;;;7.40;59.70;;;;;;5054304;28;20272;-76
2023/04/07 07:47:28;;;;;;;4.83;1.90;;;7.50;58.70;;;;;;5056555;28;20180;-76
2023/04/07 07:49:53;;;;;;;1.77;1.77;;;7.50;58.50;;;;;;5056952;28;20291;-76
2023/04/07 07:52:22;;;;;;;1.90;1.80;;;7.40;58.50;;;;;;5055314;28;20269;-75
2023/04/07 07:54:49;;;;;;;1.97;1.87;;;7.40;58.50;;;;;;5050477;28;20179;-76
2023/04/07 07:57:14;;;;;;;1.63;1.63;;;7.40;58.40;;;;;;5053342;28;20241;-76
2023/04/07 07:59:40;;;;;;;4.47;2.03;;;7.60;58.30;;;;;;5057961;28;20673;-76
2023/04/07 08:02:07;;;;;;;2.53;1.57;;;7.70;58.50;;;;;;5055296;28;20180;-76
2023/04/07 08:04:35;;;;;;;2.07;1.97;;;7.80;57.70;;;;;;5050282;28;20174;-75
2023/04/07 08:07:01;;;;;;;2.17;2.07;;;7.70;58.00;;;;;;5053955;28;20207;-76
2023/04/07 08:09:26;;;;;;;2.13;2.03;;;7.60;58.10;;;;;;5056182;28;20230;-75
2023/04/07 08:11:52;;;;;;;1.97;1.73;;;7.70;58.40;;;;;;5054158;28;20175;-76
2023/04/07 08:14:18;;;;;;;2.10;1.90;;;7.80;57.50;;;;;;5053545;28;20183;-76
2023/04/07 08:16:44;;;;;;;2.30;2.03;;;7.80;57.70;;;;;;5053614;28;20175;-76
2023/04/07 08:19:11;;;;;;;3.03;1.90;;;7.80;57.70;;;;;;5054218;28;20191;-76
2023/04/07 08:21:36;;;;;;;2.30;2.20;;;7.80;57.70;;;;;;5053503;28;20179;-76
2023/04/07 08:24:03;;;;;;;1.67;1.67;;;7.80;57.60;;;;;;5054518;28;20209;-75
2023/04/07 08:26:29;;;;;;;1.80;1.70;;;7.90;57.50;;;;;;5056950;28;20179;-76
2023/04/07 08:28:55;;;;;;;1.83;1.73;;;8.20;57.50;;;;;;5054208;28;20594;-76
2023/04/07 08:31:20;;;;;;;2.77;1.83;;;8.20;57.00;;;;;;5055315;28;21664;-75
2023/04/07 08:33:46;;;;;;;2.80;2.03;;;8.20;57.00;;;;;;5057208;28;20653;-76
2023/04/07 08:36:12;;;;;;;2.77;2.07;;;8.00;57.50;;;;;;5056806;28;20287;-76
2023/04/07 08:38:37;;;;;;;2.30;2.10;;;8.00;58.00;;;;;;5054659;28;20180;-76
2023/04/07 08:41:11;;;;;;;2.27;2.17;;;8.00;58.00;;;;;;5054238;28;20312;-76
2023/04/07 08:43:38;;;;;;;2.37;1.83;;;7.90;57.90;;;;;;5056996;28;20195;-76
2023/04/07 08:46:04;;;;;;;2.00;1.90;;;7.90;57.50;;;;;;5059659;28;20167;-76
2023/04/07 08:48:34;;;;;;;1.77;1.67;;;8.00;57.50;;;;;;5053089;28;21645;-76
2023/04/07 08:51:05;;;;;;;2.10;1.63;;;8.10;56.80;;;;;;5054054;28;20959;-76
2023/04/07 08:53:48;;;;;;;1.57;1.57;;;8.20;56.90;;;;;;5053492;28;20719;-75
2023/04/07 08:56:15;;;;;;;2.40;2.20;;;8.50;56.90;;;;;;5052157;28;20179;-76
2023/04/07 08:58:42;;;;;;;1.93;1.83;;;8.60;56.40;;;;;;5053294;28;20187;-76
2023/04/07 09:01:08;;;;;;;2.93;1.87;;;8.70;55.90;;;;;;5057834;28;20187;-75
2023/04/07 09:03:34;;;;;;;1.83;1.73;;;9.00;56.20;;;;;;5053160;28;20179;-75
2023/04/07 09:06:01;;;;;;;2.57;2.37;;;9.30;55.40;;;;;;5053042;28;20172;-75
2023/04/07 09:08:27;;;;;;;3.33;3.07;;;9.50;55.90;;;;;;5058606;28;20179;-76
2023/04/07 09:10:53;;;;;;;2.57;2.37;;;9.70;55.00;;;;;;5056643;28;20199;-76
2023/04/07 09:13:19;;;;;;;2.30;2.20;;;10.00;55.40;;;;;;5059856;28;20178;-76
2023/04/07 09:15:45;;;;;;;2.33;1.98;;;10.50;55.30;;;;;;5061641;28;20266;-76
2023/04/07 09:18:11;;;;;;;3.17;2.40;;;11.30;53.80;;;;;;5056661;28;20551;-76
2023/04/07 09:21:00;;;;;;;2.67;2.47;;;11.40;51.90;;;;;;5054672;28;20183;-75
2023/04/07 09:23:30;;;;;;;4.93;2.85;;;11.50;53.10;;;;;;5053927;28;20180;-76
2023/04/07 09:26:00;;;;;;;3.40;3.20;;;11.40;52.00;;;;;;5058757;28;20186;-77
2023/04/07 09:28:39;;;;;;;3.00;2.80;;;11.20;52.00;;;;;;5057735;28;20577;-76
2023/04/07 09:31:05;;;;;;;4.50;2.83;;;10.90;52.60;;;;;;5052773;28;20180;-74
2023/04/07 09:33:32;;;;;;;2.92;2.72;;;10.50;53.20;;;;;;5055894;28;20312;-75
2023/04/07 09:35:58;;;;;;;3.65;2.67;;;10.40;53.50;;;;;;5055260;28;20167;-75
2023/04/07 09:38:32;;;;;;;2.80;2.70;;;10.30;53.40;;;;;;5055339;28;20671;-75
2023/04/07 09:41:16;;;;;;;3.33;2.95;;;10.00;53.50;;;;;;5058886;28;20177;-75
2023/04/07 09:43:47;;;;;;;2.90;2.80;;;9.50;54.40;;;;;;5057909;28;20251;-74
2023/04/07 09:46:16;;;;;;;2.65;2.42;;;9.50;54.80;;;;;;5055026;28;20700;-75
2023/04/07 09:48:43;;;;;;;3.20;3.00;;;9.40;55.20;;;;;;5055323;28;20275;-76
2023/04/07 09:51:16;;;;;;;3.63;3.28;;;9.20;55.50;;;;;;5051308;28;20198;-75
2023/04/07 09:53:52;;;;;;;2.35;2.25;;;9.10;56.00;;;;;;5054834;28;20175;-75
2023/04/07 09:56:21;;;;;;;3.10;2.83;;;9.10;56.30;;;;;;5061541;28;20625;-75
2023/04/07 09:58:50;;;;;;;1.95;1.85;;;9.20;56.80;;;;;;5052294;28;20171;-76
2023/04/07 10:01:16;;;;;;;3.13;2.53;;;9.70;56.10;;;;;;5054731;28;20789;-76
2023/04/07 10:03:43;;;;;;;2.17;1.98;;;10.40;54.80;;;;;;5055535;28;20263;-75
2023/04/07 10:06:09;;;;;;;2.38;2.28;;;11.00;53.20;;;;;;5061302;28;20229;-76
2023/04/07 10:08:38;;;;;;;2.33;2.22;;;11.30;52.80;;;;;;5060973;28;20594;-76
2023/04/07 10:11:05;;;;;;;2.55;2.35;;;11.40;52.50;;;;;;5055723;28;20207;-76
2023/04/07 10:13:32;;;;;;;2.20;2.10;;;11.20;52.90;;;;;;5051419;28;20180;-76
2023/04/07 10:15:58;;;;;;;2.83;2.72;;;11.40;53.20;;;;;;5056280;28;20680;-75
2023/04/07 10:18:35;;;;;;;3.08;2.65;;;10.90;52.60;;;;;;5058573;28;20233;-74
2023/04/07 10:21:03;;;;;;;2.72;2.53;;;10.30;53.60;;;;;;5053451;28;20553;-75
2023/04/07 10:23:47;;;;;;;3.20;2.90;;;10.10;54.60;;;;;;5056585;28;20179;-76
2023/04/07 10:26:18;;;;;;;2.80;2.60;;;10.00;54.90;;;;;;5052592;28;20380;-75
2023/04/07 10:28:48;;;;;;;2.92;2.72;;;10.00;55.20;;;;;;5051678;28;20219;-75
2023/04/07 10:31:14;;;;;;;2.30;2.28;;;10.10;55.60;;;;;;5051287;28;20668;-76
2023/04/07 10:33:47;;;;;;;4.35;2.55;;;10.10;55.50;;;;;;5054880;28;20198;-73
2023/04/07 10:36:13;;;;;;;2.63;2.25;;;10.10;55.40;;;;;;5053879;28;20352;-74
2023/04/07 10:38:40;;;;;;;2.63;2.28;;;10.30;55.70;;;;;;5057333;28;20645;-74
2023/04/07 10:41:30;;;;;;;3.00;2.80;;;10.50;56.00;;;;;;5052671;28;20202;-74
2023/04/07 10:43:57;;;;;;;2.42;2.05;;;10.60;55.50;;;;;;5054421;28;20191;-74
2023/04/07 10:46:23;;;;;;;2.78;2.58;;;10.70;56.00;;;;;;5056959;28;20533;-74
2023/04/07 10:49:08;;;;;;;3.03;2.78;;;10.80;56.00;;;;;;5053120;28;20222;-74
2023/04/07 10:51:34;;;;;;;3.10;2.88;;;10.80;56.30;;;;;;5053049;28;20180;-82
2023/04/07 10:54:22;;;;;;;2.88;2.67;;;10.80;56.50;;;;;;5056102;28;20271;-82
2023/04/07 10:57:17;;;;;;;2.65;2.55;;;10.80;56.80;;;;;;5054143;28;20175;-76
2023/04/07 11:00:27;;;;;;;2.55;2.45;;;10.90;56.60;;;;;;5050927;28;20194;-77
2023/04/07 11:02:53;;;;;;;2.65;2.50;;;11.00;56.10;;;;;;5050498;28;20278;-76
2023/04/07 11:05:21;;;;;;;2.40;2.30;;;11.20;56.20;;;;;;5052930;28;20187;-79
2023/04/07 11:07:53;;;;;;;2.45;2.35;;;11.30;55.90;;;;;;5050291;28;20206;-77
2023/04/07 11:10:20;;;;;;;2.42;2.33;;;11.40;56.30;;;;;;5053039;28;20211;-77
2023/04/07 11:13:06;;;;;;;2.45;2.35;;;11.50;55.90;;;;;;5056566;28;20183;-78
2023/04/07 11:15:36;;;;;;;3.00;2.72;;;11.60;56.10;;;;;;5054643;28;20172;-81
2023/04/07 11:18:09;;;;;;;2.55;2.35;;;11.30;55.70;;;;;;5054472;28;20179;-81
2023/04/07 11:21:02;;;;;;;2.70;2.55;;;11.40;55.90;;;;;;5057809;28;20174;-81
2023/04/07 11:23:28;;;;;;;2.78;2.60;;;11.40;56.00;;;;;;5050934;28;20197;-80
2023/04/07 11:26:01;;;;;;;3.00;2.80;;;11.30;55.80;;;;;;5052992;28;20652;-81
2023/04/07 11:28:28;;;;;;;2.85;2.65;;;11.20;56.10;;;;;;5054559;28;20261;-78
2023/04/07 11:30:55;;;;;;;3.50;3.20;;;11.20;56.40;;;;;;5052775;28;20183;-75
2023/04/07 11:33:22;;;;;;;2.78;2.67;;;11.20;56.70;;;;;;5052810;28;21416;-76
2023/04/07 11:35:50;;;;;;;3.08;2.88;;;11.20;56.30;;;;;;5057198;28;20183;-73
2023/04/07 11:38:17;;;;;;;2.97;2.88;;;11.20;56.50;;;;;;5054192;28;20176;-75
2023/04/07 11:40:43;;;;;;;3.00;2.63;;;11.20;57.10;;;;;;5048726;28;20295;-75
2023/04/07 11:43:21;;;;;;;3.53;3.30;;;11.20;57.30;;;;;;5052545;28;20258;-77
2023/04/07 11:46:13;;;;;;;3.42;3.22;;;11.10;57.40;;;;;;5050089;28;20237;-72
2023/04/07 11:48:41;;;;;;;4.00;2.83;;;11.10;57.50;;;;;;5058406;28;20563;-75
2023/04/07 11:51:23;;;;;;;3.65;3.42;;;11.20;57.30;;;;;;5056507;28;20652;-74
2023/04/07 11:53:55;;;;;;;3.47;3.15;;;11.10;57.20;;;;;;5053321;28;20225;-78
2023/04/07 11:56:21;;;;;;;3.70;3.38;;;11.10;57.80;;;;;;5050989;28;20187;-75
2023/04/07 11:58:52;;;;;;;3.17;3.03;;;11.10;58.10;;;;;;5048061;28;20669;-76
2023/04/07 12:01:18;;;;;;;3.38;3.13;;;11.10;57.90;;;;;;5075246;28;20184;-74
2023/04/07 12:04:03;;;;;;;3.47;3.28;;;11.20;58.20;;;;;;5051471;28;20199;-75
2023/04/07 12:06:37;;;;;;;3.60;3.33;;;11.50;58.10;;;;;;5050685;28;20569;-76
2023/04/07 12:09:07;;;;;;;2.60;2.50;;;12.00;57.30;;;;;;5050764;28;20228;-76
2023/04/07 12:11:34;;;;;;;3.28;3.05;;;12.50;56.30;;;;;;5051059;28;20183;-76
2023/04/07 12:14:03;;;;;;;3.65;3.45;;;13.00;55.50;;;;;;5054710;28;20175;-77
2023/04/07 12:16:29;;;;;;;2.92;2.83;;;13.60;54.20;;;;;;5047105;28;20230;-73
2023/04/07 12:18:56;;;;;;;3.50;3.30;;;14.00;54.00;;;;;;5048440;28;20653;-74
2023/04/07 12:21:24;;;;;;;3.80;3.35;;;14.50;53.50;;;;;;5050621;28;20199;-78
2023/04/07 12:23:50;;;;;;;3.13;2.92;;;15.00;52.80;;;;;;5050981;28;20183;-78
2023/04/07 12:26:16;;;;;;;3.95;3.40;;;15.50;52.10;;;;;;5050898;28;20214;-73
2023/04/07 12:28:42;;;;;;;3.70;3.42;;;15.70;50.60;;;;;;5053555;28;20217;-75
2023/04/07 12:31:07;;;;;;;3.78;3.47;;;15.90;50.50;;;;;;5055070;28;20243;-74
2023/04/07 12:33:33;;;;;;;4.25;3.95;;;16.00;50.40;;;;;;5054719;28;20210;-78
2023/04/07 12:35:59;;;;;;;4.20;3.78;;;15.90;50.30;;;;;;5064760;28;20186;-76
2023/04/07 12:38:25;;;;;;;3.60;3.30;;;15.90;51.20;;;;;;5057568;28;20278;-76
2023/04/07 12:40:51;;;;;;;4.22;3.92;;;15.70;50.80;;;;;;5050293;28;20182;-75
2023/04/07 12:43:17;;;;;;;4.25;3.95;;;15.40;51.20;;;;;;5048797;28;20312;-75
2023/04/07 12:45:43;;;;;;;3.65;3.47;;;15.10;51.40;;;;;;5052203;28;20184;-76
2023/04/07 12:48:09;;;;;;;5.07;3.78;;;14.90;52.10;;;;;;5054993;28;20179;-75
2023/04/07 12:50:35;;;;;;;4.38;3.97;;;14.70;52.00;;;;;;5051290;28;20216;-75
2023/04/07 12:53:04;;;;;;;3.85;3.55;;;14.70;52.60;;;;;;5050999;28;20187;-75
2023/04/07 12:55:34;;;;;;;4.85;4.00;;;14.70;52.10;;;;;;5052296;28;20187;-75
2023/04/07 12:58:00;;;;;;;4.07;3.80;;;14.40;52.70;;;;;;5051614;28;20183;-75
2023/04/07 13:00:25;;;;;;;3.95;3.65;;;14.30;53.40;;;;;;5050734;28;20191;-75